createdAt,value
2022-11-04T00:05:44.491Z,29.5
2022-11-04T00:10:47.282Z,28.75
2022-11-04T00:15:44.368Z,28
2022-11-04T00:20:44.371Z,28.15
2022-11-04T00:25:44.507Z,28.3
2022-11-04T00:30:44.385Z,28.9
2022-11-04T00:35:44.381Z,29.5
2022-11-04T00:40:44.386Z,28.3
2022-11-04T00:45:44.441Z,29.7
2022-11-04T00:50:44.382Z,29.7
2022-11-04T00:55:44.395Z,29.7
2022-11-04T01:00:44.355Z,27.5
2022-11-04T01:05:44.402Z,27.3
2022-11-04T01:10:44.385Z,27.3
2022-11-04T01:25:44.686Z,26
2022-11-04T01:41:43.382Z,24.5
2022-11-04T01:46:42.642Z,22.3
2022-11-04T01:50:44.550Z,19.2
2022-11-04T01:56:16.060Z,18.6
2022-11-04T02:00:44.609Z,17.1
2022-11-04T02:05:44.550Z,15.9
2022-11-04T02:10:44.404Z,15.1
2022-11-04T02:15:44.521Z,13.1
2022-11-04T02:20:44.793Z,12.6
2022-11-04T02:25:44.389Z,9.6
2022-11-04T02:30:44.389Z,9.1
2022-11-04T02:35:44.383Z,9.1
2022-11-04T02:40:44.354Z,8.3
2022-11-04T02:45:44.399Z,7.4
2022-11-04T02:50:44.412Z,7.3
2022-11-04T02:55:44.436Z,7
2022-11-04T03:00:44.377Z,6.6
2022-11-04T03:05:44.379Z,6.6
2022-11-04T03:30:44.445Z,5.8
2022-11-04T03:35:44.636Z,5.3
2022-11-04T03:40:44.383Z,5.8
2022-11-04T03:45:44.390Z,5.8
2022-11-04T03:50:44.404Z,5.8
2022-11-04T03:55:44.404Z,5.8
2022-11-04T04:00:44.420Z,5.8
2022-11-04T04:05:44.543Z,5.8
2022-11-04T04:10:44.434Z,5.8
2022-11-04T04:15:44.378Z,5.8
2022-11-04T04:20:44.400Z,5.6
2022-11-04T04:25:44.418Z,5.9
2022-11-04T04:30:44.418Z,5.6
2022-11-04T04:35:44.434Z,5.6
2022-11-04T04:40:44.436Z,5.5
2022-11-04T04:45:44.432Z,5.5
2022-11-04T04:50:44.416Z,5.5
2022-11-04T04:55:44.412Z,5.6
2022-11-04T05:00:44.458Z,5.5
2022-11-04T05:05:44.382Z,5.5
2022-11-04T05:10:44.428Z,5.6
2022-11-04T05:15:44.461Z,5.6
2022-11-04T05:30:47.129Z,6.6
2022-11-04T05:35:44.460Z,5.5
2022-11-04T05:40:44.726Z,4.8
2022-11-04T05:45:44.427Z,5.7
2022-11-04T05:50:44.458Z,4.8
2022-11-04T05:55:44.430Z,5.3
2022-11-04T06:00:44.462Z,5.6
2022-11-04T06:05:44.466Z,5.3
2022-11-04T06:10:44.437Z,5.3
2022-11-04T06:15:44.428Z,5.4
2022-11-04T06:20:44.434Z,5.4
2022-11-04T06:25:48.305Z,5.4
2022-11-04T06:30:44.483Z,5.4
2022-11-04T06:35:44.590Z,5.3
2022-11-04T06:40:44.431Z,5.1
2022-11-04T06:45:44.510Z,5.4
2022-11-04T06:50:44.417Z,6.6
2022-11-04T06:55:44.472Z,6.6
2022-11-04T07:00:44.513Z,8
2022-11-04T07:05:44.432Z,6.6
2022-11-04T07:10:44.444Z,6.6
2022-11-04T07:15:44.444Z,6.6
2022-11-04T07:20:44.731Z,6.4
2022-11-04T07:25:46.108Z,6.4
2022-11-04T07:30:44.525Z,6.4
2022-11-04T07:35:44.412Z,6.4
2022-11-04T07:40:51.307Z,6.4
2022-11-04T07:45:51.458Z,6.3
2022-11-04T07:50:51.287Z,7.6
2022-11-04T07:55:51.338Z,7.6
2022-11-04T08:00:51.329Z,7.8
2022-11-04T08:05:51.467Z,7.8
2022-11-04T08:10:51.312Z,8.5
2022-11-04T08:15:51.524Z,9.4
2022-11-04T08:20:51.509Z,9.5
2022-11-04T08:25:55.408Z,9.5
2022-11-04T08:30:51.357Z,9.5
2022-11-04T08:35:51.499Z,9.5
2022-11-04T08:40:58.647Z,9.5
2022-11-04T08:45:51.316Z,9.4
2022-11-04T08:50:51.314Z,9.4
2022-11-04T08:55:51.557Z,7.6
2022-11-04T09:00:51.466Z,9.4
2022-11-04T09:05:51.447Z,9.4
2022-11-04T09:10:51.331Z,8.8
2022-11-04T09:15:51.334Z,7.4
2022-11-04T09:20:51.636Z,7.4
2022-11-04T09:26:36.086Z,8.8
2022-11-04T09:30:51.537Z,9.7
2022-11-04T09:36:04.317Z,9.7
2022-11-04T09:40:51.577Z,9.8
2022-11-04T09:45:51.574Z,9.8
2022-11-04T09:50:51.499Z,10
2022-11-04T09:55:51.668Z,9.8
2022-11-04T10:00:51.670Z,9.7
2022-11-04T10:05:51.479Z,10
2022-11-04T10:10:51.475Z,9.2
2022-11-04T10:15:51.494Z,9
2022-11-04T10:20:51.348Z,8.6
2022-11-04T10:25:54.029Z,7.2
2022-11-04T10:30:54.143Z,8.6
2022-11-04T10:35:51.434Z,8.6
2022-11-04T10:40:51.364Z,8.3
2022-11-04T10:45:51.351Z,8
2022-11-04T10:50:51.366Z,8
2022-11-04T10:55:51.343Z,8.3
2022-11-04T11:00:51.424Z,8.3
2022-11-04T11:05:51.365Z,8
2022-11-04T11:10:51.524Z,8
2022-11-04T11:15:51.392Z,6.8
2022-11-04T11:20:51.383Z,6.8
2022-11-04T11:25:51.790Z,6.8
2022-11-04T11:30:58.352Z,6.8
2022-11-04T11:36:06.514Z,7.2
2022-11-04T11:41:18.613Z,7.2
2022-11-04T11:45:51.526Z,8
2022-11-04T11:50:51.539Z,9.1
2022-11-04T11:55:51.543Z,9.4
2022-11-04T12:01:01.217Z,9.1
2022-11-04T12:06:18.579Z,9.2
2022-11-04T12:10:52.615Z,9.2
2022-11-04T12:15:51.544Z,9.1
2022-11-04T12:20:51.378Z,8.3
2022-11-04T12:26:59.689Z,7.3
2022-11-04T12:31:59.575Z,7.1
2022-11-04T12:36:59.703Z,7.2
2022-11-04T12:42:20.406Z,7.1
2022-11-04T12:46:59.517Z,7.1
2022-11-04T12:51:59.601Z,7.1
2022-11-04T12:56:59.629Z,7.2
2022-11-04T13:01:59.911Z,7.2
2022-11-04T13:06:59.600Z,7.9
2022-11-04T13:11:59.528Z,10.5
2022-11-04T13:16:59.581Z,10.5
2022-11-04T13:21:59.530Z,15.4
2022-11-04T13:26:59.737Z,15.4
2022-11-04T13:31:59.520Z,11.5
2022-11-04T13:36:59.694Z,10.5
2022-11-04T13:41:59.567Z,10
2022-11-04T13:46:59.531Z,10
2022-11-04T13:51:59.561Z,9.6
2022-11-04T13:56:59.560Z,9.1
2022-11-04T14:01:59.641Z,9.1
2022-11-04T14:06:59.588Z,9.5
2022-11-04T14:11:59.549Z,9.5
2022-11-04T14:16:59.534Z,9.5
2022-11-04T14:21:59.520Z,9.1
2022-11-04T14:27:00.040Z,7.7
2022-11-04T14:31:59.568Z,7
2022-11-04T14:36:59.604Z,6.2
2022-11-04T14:41:59.543Z,6.2
2022-11-04T14:46:59.546Z,6.2
2022-11-04T14:51:59.614Z,7
2022-11-04T14:56:59.544Z,7.3
2022-11-04T15:01:59.812Z,9.5
2022-11-04T15:06:59.565Z,9.5
2022-11-04T15:11:59.672Z,10.4
2022-11-04T15:16:59.643Z,10.4
2022-11-04T15:21:59.606Z,10.4
2022-11-04T15:26:59.697Z,10
2022-11-04T15:31:59.542Z,8.5
2022-11-04T15:36:59.584Z,8.1
2022-11-04T15:41:59.614Z,7.4
2022-11-04T15:46:59.674Z,6.9
2022-11-04T15:51:59.577Z,6.9
2022-11-04T15:56:59.557Z,6.9
2022-11-04T16:01:59.801Z,6.9
2022-11-04T16:06:59.645Z,6.9
2022-11-04T16:11:59.825Z,11.8
2022-11-04T16:16:59.641Z,11.8
2022-11-04T16:21:59.636Z,11.8
2022-11-04T16:27:22.155Z,11.8
2022-11-04T16:31:59.702Z,12.1
2022-11-04T16:36:59.587Z,12.1
2022-11-04T16:41:59.544Z,12.1
2022-11-04T16:46:59.601Z,12.1
2022-11-04T16:51:59.650Z,17.1
2022-11-04T16:56:59.700Z,25.7
2022-11-04T17:01:59.738Z,25.9
2022-11-04T17:06:59.621Z,27.7
2022-11-04T17:11:59.634Z,27.7
2022-11-04T17:16:59.590Z,25.9
2022-11-04T17:21:59.776Z,25.7
2022-11-04T17:27:00.459Z,19.4
2022-11-04T17:31:59.680Z,16
2022-11-04T17:36:59.602Z,14.4
2022-11-04T17:41:59.625Z,11
2022-11-04T17:46:59.636Z,10.5
2022-11-04T17:51:59.640Z,10.5
2022-11-04T17:56:59.605Z,10.5
2022-11-04T18:01:59.790Z,11.3
2022-11-04T18:07:03.195Z,11.3
2022-11-04T18:11:59.601Z,11.3
2022-11-04T18:16:59.633Z,11.3
2022-11-04T18:21:59.654Z,11.5
2022-11-04T18:27:01.292Z,11.5
2022-11-04T18:31:59.631Z,11.7
2022-11-04T18:36:59.653Z,11.7
2022-11-04T18:42:00.184Z,16.5
2022-11-04T18:46:59.629Z,17.8
2022-11-04T18:51:59.582Z,18.1
2022-11-04T18:56:59.601Z,24.4
2022-11-04T19:01:59.658Z,24.4
2022-11-04T19:06:59.756Z,24.4
2022-11-04T19:11:59.624Z,25.6
2022-11-04T19:16:59.676Z,25.6
2022-11-04T19:21:59.578Z,25.6
2022-11-04T19:27:29.134Z,42.3
2022-11-04T19:31:59.617Z,44.1
2022-11-04T19:36:59.607Z,45.2
2022-11-04T19:41:59.739Z,45.8
2022-11-04T19:46:59.622Z,45.2
2022-11-04T19:51:59.774Z,45.8
2022-11-04T19:56:59.779Z,45.2
2022-11-04T20:01:59.744Z,45.1
2022-11-04T20:06:59.596Z,45.2
2022-11-04T20:11:59.734Z,45.1
2022-11-04T20:16:59.601Z,45.1
2022-11-04T20:21:59.807Z,44.8
2022-11-04T20:26:59.950Z,42.7
2022-11-04T20:31:59.566Z,42.7
2022-11-04T20:36:59.641Z,42.7
2022-11-04T20:41:59.656Z,37
2022-11-04T20:46:59.612Z,37
2022-11-04T20:51:59.651Z,34.5
2022-11-04T20:56:59.638Z,34.5
2022-11-04T21:01:59.760Z,34.4
2022-11-04T21:06:59.570Z,34.4
2022-11-04T21:11:59.706Z,34.4
2022-11-04T21:16:59.675Z,34.5
2022-11-04T21:21:59.685Z,34.5
2022-11-04T21:27:00.031Z,31.5
2022-11-04T21:32:07.636Z,29.5
2022-11-04T21:36:59.655Z,30
2022-11-04T21:41:59.677Z,31.5
2022-11-04T21:46:59.659Z,31.5
2022-11-04T21:51:59.683Z,30
2022-11-04T21:56:59.628Z,25
2022-11-04T22:01:59.682Z,24.2
2022-11-04T22:06:59.667Z,24.2
2022-11-04T22:11:59.791Z,24.2
2022-11-04T22:16:59.627Z,24.2
2022-11-04T22:21:59.650Z,25
2022-11-04T22:26:59.761Z,28.9
2022-11-04T22:31:59.732Z,29.2
2022-11-04T22:36:59.677Z,29.9
2022-11-04T22:41:59.647Z,29.9
2022-11-04T22:46:59.660Z,29.9
2022-11-04T22:51:59.690Z,29.9
2022-11-04T22:56:59.650Z,29.9
2022-11-04T23:01:59.841Z,29.1
2022-11-04T23:06:59.661Z,29.1
2022-11-04T23:11:59.760Z,28.6
2022-11-04T23:16:59.771Z,28
2022-11-04T23:21:59.639Z,28
2022-11-04T23:26:59.942Z,27.5
2022-11-04T23:31:59.698Z,25.9
2022-11-04T23:36:59.660Z,25.9
2022-11-04T23:41:59.718Z,25.4
2022-11-04T23:46:59.635Z,23.4
2022-11-04T23:51:59.696Z,23.1
2022-11-04T23:56:59.649Z,22.4
